(°C)
17°
19°
20°
21°
22°
23°
23°
(°C)
14°
15°
16°
18°
20°
21°
22°
S
S
S
S
S
S
S
(km/h)
14-25
13-25
13-24
13-23
12-22
11-20
10-18
(mm)
0
0
0
0
0
0
0
(%)
0
0
0
0
0
0
0

Podizanje Sunca

/ 31.5°
sun-icon
UV 8
05:40
20:17
Star mesec (279°)
02:32
13:31

METAR za Wilmington Manor (KILG)

Vreme Uslovi Temperatura/
Tačka rose
Vetar Vidljivost Prognoza Oblaci Pritisak Promena Neobrađeno
VFR 16.7°C / 8.9°C 360º 12kt >10km - Clear 1022 - KILG 231151Z 36012KT 10SM CLR 17/09 A3021 RMK AO2 SLP228 70015 T01670089 10211 20156 51026 $
VFR 15.6°C / 8.3°C 360º 10kt >10km - Clear 1022 - KILG 231051Z 36010KT 10SM CLR 16/08 A3020 RMK AO2 SLP226 T01560083 $
VFR 16.7°C / 10°C 360º 10kt >10km - Clear 1021 - KILG 230951Z AUTO 36010KT 10SM CLR 17/10 A3016 RMK AO2 SLP212 T01670100 $
VFR 17.8°C / 11.7°C 360º 10kt >10km - Overcast 3700ft 1020 - KILG 230851Z AUTO 36010KT 10SM OVC037 18/12 A3013 RMK AO2 SLP201 T01780117 51023 $
VFR 18.3°C / 13.3°C 10º 11kt Gust 18kt >10km - Overcast 3300ft 1019 - KILG 230751Z AUTO 01011G18KT 10SM OVC033 18/13 A3012 RMK AO2 SLP197 T01830133 $
VFR 18.9°C / 15.6°C 360º 10kt >10km - Overcast 3200ft - KILG 230715Z AUTO 36010KT 10SM OVC032 19/16 A3011 RMK AO2 T01890156 $
MVFR 19.4°C / 16.7°C 360º 10kt Gust 17kt >10km - Few Clouds 1300ft
Overcast 2700ft
1019 - KILG 230651Z AUTO 36010G17KT 10SM FEW013 OVC027 19/17 A3010 RMK AO2 SLP192 T01940167 $
MVFR 21.1°C / 18.3°C 340º 15kt Gust 21kt >10km - Scattered Clouds 1500ft
Broken Clouds 2500ft
- KILG 230626Z AUTO 34015G21KT 10SM SCT015 BKN025 21/18 A3009 RMK AO2 PRESRR T02110183
VFR 20.6°C / 19.4°C 310º 6kt >10km - Clear 1017 - KILG 230551Z AUTO 31006KT 9SM CLR 21/19 A3006 RMK AO2 SLP178 60012 T02060194 10222 20206 58014
VFR 21.1°C / 20°C 350º 5kt >10km 1.52mm precipitation Few Clouds 12000ft 1018 - KILG 230451Z AUTO 35005KT 9SM FEW120 21/20 A3007 RMK AO2 RAE29 SLP182 P0006 T02110200 403170211
MVFR 21.1°C / 20°C 240º 4kt 6400m Rain Mist 1.52mm precipitation Broken Clouds 7000ft
Broken Clouds 8000ft
Overcast 9500ft
1019 - KILG 230351Z AUTO 24004KT 4SM RA BR BKN070 BKN080 OVC095 21/20 A3012 RMK AO2 SLP197 P0006 T02110200
VFR 21.7°C / 20°C 270º 10kt >10km Light Rain 0.25mm precipitation Scattered Clouds 1400ft
Broken Clouds 6000ft
Overcast 7500ft
- KILG 230259Z AUTO 27010KT 8SM -RA SCT014 BKN060 OVC075 22/20 A3011 RMK AO2 LTG DSNT SE P0001 T02170200
MVFR 22.2°C / 20°C 250º 11kt >10km Light Rain 0.13mm precipitation Broken Clouds 1400ft
Broken Clouds 4500ft
Overcast 6000ft
1019 - KILG 230251Z AUTO 25011KT 9SM -RA BKN014 BKN045 OVC060 22/20 A3010 RMK AO2 LTG DSNT SE AND S RAB49 SLP193 P0000 60000 T02220200 51031
MVFR 22°C / 20°C 250º 11kt Gust 16kt >10km - Broken Clouds 1500ft
Overcast 4500ft
- KILG 230247Z AUTO 25011G16KT 10SM BKN015 OVC045 22/20 A3010 RMK AO2 LTG DSNT SE AND S
VFR 21.7°C / 18.9°C 240º 5kt >10km - Clear 1017 - KILG 230151Z AUTO 24005KT 10SM CLR 22/19 A3005 RMK AO2 LTG DSNT S SLP175 T02170189
VFR 21.7°C / 19.4°C 290º 8kt >10km 0.13mm precipitation Clear 1016 - KILG 230051Z 29008KT 10SM CLR 22/19 A3001 RMK AO2 RAE15 SLP161 P0000 T02170194
VFR 21.7°C / 18.9°C 180º 6kt >10km Light Rain 0.76mm precipitation Few Clouds 10000ft
Broken Clouds 11000ft
1016 - KILG 222351Z 18006KT 10SM -RA FEW100 BKN110 22/19 A3001 RMK AO2 TSE06 SLP161 P0003 60003 T02170189 10317 20217 50019
VFR 21.7°C / 18.9°C 220º 3kt >10km in the Vicinity Thunderstorm Light Rain 0.76mm precipitation Broken Clouds 11000ft - KILG 222328Z 22003KT 10SM VCTS -RA BKN110 22/19 A3003 RMK AO2 LTG DSNT NE-S TSE06 P0003 T02170189
VFR 22.2°C / 18.3°C 250º 7kt 9700m Light Rain 0.76mm precipitation Broken Clouds 11000ft - KILG 222320Z 25007KT 6SM -RA BKN110 22/18 A3004 RMK AO2 LTG DSNT NE-S TSE06 P0003 T02220183
MVFR 22.8°C / 18.3°C 250º 6kt 8000m in the Vicinity Thunderstorm Rain 0.51mm precipitation Broken Clouds 11000ft - KILG 222312Z 25006KT 5SM VCTS RA BKN110 23/18 A3004 RMK AO2 LTG DSNT NE AND E AND SW TSE06 P0002 T02280183
VFR 24.4°C / 16.7°C variable 0kt. Wind Shift present. 9700m Light Thunderstorm Rain 0.13mm precipitation Few Clouds 4900ft
Scattered Clouds 8000ft
Broken Clouds 9500ft
1016 - KILG 222251Z 00000KT 6SM -TSRA FEW049 SCT080 BKN095 24/17 A3002 RMK AO2 PK WND 30032/2211 WSHFT 2209 LTG DSNT N AND NE AND SW RAB42 TSB50 SLP165 P0000 T02440167
VFR 25.6°C / 16.7°C 310º 15kt Gust 23kt. Wind Shift present. >10km in the Vicinity Thunderstorm Vertical Visibility of 0ft.
Broken Clouds 6500ft
- KILG 222227Z 31015G23KT 10SM VCTS BKN045 BKN065 26/17 A3003 RMK AO2 PK WND 30032/2211 WSHFT 2209 LTG DSNT NE AND SW AND W T02560167
VFR 29.4°C / 20°C 250º 8kt >10km - Clear 1015 - KILG 222151Z 25008KT 10SM CLR 29/20 A2998 RMK AO2 LTG DSNT W-N SLP150 T02940200
VFR 31.1°C / 20.6°C 210º 13kt >10km - Clear 1014 - KILG 222051Z 21013KT 10SM CLR 31/21 A2995 RMK AO2 SLP141 T03110206 56016

VFR

16.7°C / 8.9°C

[Više]
Vetar 360º 12kt
Vidljivost >10km
Prognoza -
Oblaci Clear
Pritisak 1022
Promena -
Neobrađeno KILG 231151Z 36012KT 10SM CLR 17/09 A3021 RMK AO2 SLP228 70015 T01670089 10211 20156 51026 $

VFR

15.6°C / 8.3°C

[Više]
Vetar 360º 10kt
Vidljivost >10km
Prognoza -
Oblaci Clear
Pritisak 1022
Promena -
Neobrađeno KILG 231051Z 36010KT 10SM CLR 16/08 A3020 RMK AO2 SLP226 T01560083 $

VFR

16.7°C / 10°C

[Više]
Vetar 360º 10kt
Vidljivost >10km
Prognoza -
Oblaci Clear
Pritisak 1021
Promena -
Neobrađeno KILG 230951Z AUTO 36010KT 10SM CLR 17/10 A3016 RMK AO2 SLP212 T01670100 $

VFR

17.8°C / 11.7°C

[Više]
Vetar 360º 10kt
Vidljivost >10km
Prognoza -
Oblaci Overcast 3700ft
Pritisak 1020
Promena -
Neobrađeno KILG 230851Z AUTO 36010KT 10SM OVC037 18/12 A3013 RMK AO2 SLP201 T01780117 51023 $

VFR

18.3°C / 13.3°C

[Više]
Vetar 10º 11kt Gust 18kt
Vidljivost >10km
Prognoza -
Oblaci Overcast 3300ft
Pritisak 1019
Promena -
Neobrađeno KILG 230751Z AUTO 01011G18KT 10SM OVC033 18/13 A3012 RMK AO2 SLP197 T01830133 $

VFR

18.9°C / 15.6°C

[Više]
Vetar 360º 10kt
Vidljivost >10km
Prognoza -
Oblaci Overcast 3200ft
Pritisak
Promena -
Neobrađeno KILG 230715Z AUTO 36010KT 10SM OVC032 19/16 A3011 RMK AO2 T01890156 $

MVFR

19.4°C / 16.7°C

[Više]
Vetar 360º 10kt Gust 17kt
Vidljivost >10km
Prognoza -
Oblaci Few Clouds 1300ft
Overcast 2700ft
Pritisak 1019
Promena -
Neobrađeno KILG 230651Z AUTO 36010G17KT 10SM FEW013 OVC027 19/17 A3010 RMK AO2 SLP192 T01940167 $

MVFR

21.1°C / 18.3°C

[Više]
Vetar 340º 15kt Gust 21kt
Vidljivost >10km
Prognoza -
Oblaci Scattered Clouds 1500ft
Broken Clouds 2500ft
Pritisak
Promena -
Neobrađeno KILG 230626Z AUTO 34015G21KT 10SM SCT015 BKN025 21/18 A3009 RMK AO2 PRESRR T02110183

VFR

20.6°C / 19.4°C

[Više]
Vetar 310º 6kt
Vidljivost >10km
Prognoza -
Oblaci Clear
Pritisak 1017
Promena -
Neobrađeno KILG 230551Z AUTO 31006KT 9SM CLR 21/19 A3006 RMK AO2 SLP178 60012 T02060194 10222 20206 58014

VFR

21.1°C / 20°C

[Više]
Vetar 350º 5kt
Vidljivost >10km
Prognoza 1.52mm precipitation
Oblaci Few Clouds 12000ft
Pritisak 1018
Promena -
Neobrađeno KILG 230451Z AUTO 35005KT 9SM FEW120 21/20 A3007 RMK AO2 RAE29 SLP182 P0006 T02110200 403170211

MVFR

21.1°C / 20°C

[Više]
Vetar 240º 4kt
Vidljivost 6400m
Prognoza Rain Mist 1.52mm precipitation
Oblaci Broken Clouds 7000ft
Broken Clouds 8000ft
Overcast 9500ft
Pritisak 1019
Promena -
Neobrađeno KILG 230351Z AUTO 24004KT 4SM RA BR BKN070 BKN080 OVC095 21/20 A3012 RMK AO2 SLP197 P0006 T02110200

VFR

21.7°C / 20°C

[Više]
Vetar 270º 10kt
Vidljivost >10km
Prognoza Light Rain 0.25mm precipitation
Oblaci Scattered Clouds 1400ft
Broken Clouds 6000ft
Overcast 7500ft
Pritisak
Promena -
Neobrađeno KILG 230259Z AUTO 27010KT 8SM -RA SCT014 BKN060 OVC075 22/20 A3011 RMK AO2 LTG DSNT SE P0001 T02170200

MVFR

22.2°C / 20°C

[Više]
Vetar 250º 11kt
Vidljivost >10km
Prognoza Light Rain 0.13mm precipitation
Oblaci Broken Clouds 1400ft
Broken Clouds 4500ft
Overcast 6000ft
Pritisak 1019
Promena -
Neobrađeno KILG 230251Z AUTO 25011KT 9SM -RA BKN014 BKN045 OVC060 22/20 A3010 RMK AO2 LTG DSNT SE AND S RAB49 SLP193 P0000 60000 T02220200 51031

MVFR

22°C / 20°C

[Više]
Vetar 250º 11kt Gust 16kt
Vidljivost >10km
Prognoza -
Oblaci Broken Clouds 1500ft
Overcast 4500ft
Pritisak
Promena -
Neobrađeno KILG 230247Z AUTO 25011G16KT 10SM BKN015 OVC045 22/20 A3010 RMK AO2 LTG DSNT SE AND S

VFR

21.7°C / 18.9°C

[Više]
Vetar 240º 5kt
Vidljivost >10km
Prognoza -
Oblaci Clear
Pritisak 1017
Promena -
Neobrađeno KILG 230151Z AUTO 24005KT 10SM CLR 22/19 A3005 RMK AO2 LTG DSNT S SLP175 T02170189

VFR

21.7°C / 19.4°C

[Više]
Vetar 290º 8kt
Vidljivost >10km
Prognoza 0.13mm precipitation
Oblaci Clear
Pritisak 1016
Promena -
Neobrađeno KILG 230051Z 29008KT 10SM CLR 22/19 A3001 RMK AO2 RAE15 SLP161 P0000 T02170194

VFR

21.7°C / 18.9°C

[Više]
Vetar 180º 6kt
Vidljivost >10km
Prognoza Light Rain 0.76mm precipitation
Oblaci Few Clouds 10000ft
Broken Clouds 11000ft
Pritisak 1016
Promena -
Neobrađeno KILG 222351Z 18006KT 10SM -RA FEW100 BKN110 22/19 A3001 RMK AO2 TSE06 SLP161 P0003 60003 T02170189 10317 20217 50019

VFR

21.7°C / 18.9°C

[Više]
Vetar 220º 3kt
Vidljivost >10km
Prognoza in the Vicinity Thunderstorm Light Rain 0.76mm precipitation
Oblaci Broken Clouds 11000ft
Pritisak
Promena -
Neobrađeno KILG 222328Z 22003KT 10SM VCTS -RA BKN110 22/19 A3003 RMK AO2 LTG DSNT NE-S TSE06 P0003 T02170189

VFR

22.2°C / 18.3°C

[Više]
Vetar 250º 7kt
Vidljivost 9700m
Prognoza Light Rain 0.76mm precipitation
Oblaci Broken Clouds 11000ft
Pritisak
Promena -
Neobrađeno KILG 222320Z 25007KT 6SM -RA BKN110 22/18 A3004 RMK AO2 LTG DSNT NE-S TSE06 P0003 T02220183

MVFR

22.8°C / 18.3°C

[Više]
Vetar 250º 6kt
Vidljivost 8000m
Prognoza in the Vicinity Thunderstorm Rain 0.51mm precipitation
Oblaci Broken Clouds 11000ft
Pritisak
Promena -
Neobrađeno KILG 222312Z 25006KT 5SM VCTS RA BKN110 23/18 A3004 RMK AO2 LTG DSNT NE AND E AND SW TSE06 P0002 T02280183

VFR

24.4°C / 16.7°C

[Više]
Vetar variable 0kt. Wind Shift present.
Vidljivost 9700m
Prognoza Light Thunderstorm Rain 0.13mm precipitation
Oblaci Few Clouds 4900ft
Scattered Clouds 8000ft
Broken Clouds 9500ft
Pritisak 1016
Promena -
Neobrađeno KILG 222251Z 00000KT 6SM -TSRA FEW049 SCT080 BKN095 24/17 A3002 RMK AO2 PK WND 30032/2211 WSHFT 2209 LTG DSNT N AND NE AND SW RAB42 TSB50 SLP165 P0000 T02440167

VFR

25.6°C / 16.7°C

[Više]
Vetar 310º 15kt Gust 23kt. Wind Shift present.
Vidljivost >10km
Prognoza in the Vicinity Thunderstorm
Oblaci Vertical Visibility of 0ft.
Broken Clouds 6500ft
Pritisak
Promena -
Neobrađeno KILG 222227Z 31015G23KT 10SM VCTS BKN045 BKN065 26/17 A3003 RMK AO2 PK WND 30032/2211 WSHFT 2209 LTG DSNT NE AND SW AND W T02560167

VFR

29.4°C / 20°C

[Više]
Vetar 250º 8kt
Vidljivost >10km
Prognoza -
Oblaci Clear
Pritisak 1015
Promena -
Neobrađeno KILG 222151Z 25008KT 10SM CLR 29/20 A2998 RMK AO2 LTG DSNT W-N SLP150 T02940200

VFR

31.1°C / 20.6°C

[Više]
Vetar 210º 13kt
Vidljivost >10km
Prognoza -
Oblaci Clear
Pritisak 1014
Promena -
Neobrađeno KILG 222051Z 21013KT 10SM CLR 31/21 A2995 RMK AO2 SLP141 T03110206 56016

TAF za Wilmington Manor (KILG)

From till


From till Wind 360º 12kt. Visibility 10km or more. Broken Clouds 25000ft.
From till Wind 350º 5kt. Visibility 10km or more. Broken Clouds 9000ft.
From till Wind variable 4kt. Visibility 10km or more. Broken Clouds 6000ft.
From till Wind variable 3kt. Visibility 10km or more. in the Vicinity Showers . Overcast 4000ft.

Neobrađeno: KILG 231120Z 2312/2412 36012KT P6SM BKN250 FM232200 35005KT P6SM BKN090 FM240300 VRB04KT P6SM BKN060 FM240600 VRB03KT P6SM VCSH OVC040

Radar i padavine kratka prognoza za Wilmington Manor

Rominjati
Lak
Umjereno
Teška
Vrlo teško
Zdravo

Marker lokacije postavljen je na Wilmington Manor. Ova animacija prikazuje radar padavina za poslednji sat, kao i 1h prognozu. Kiša ili slab snijeg mogu biti nevidljivi za radar. Intenzitet padavina je označen bojom, u rasponu od svetloplave do narandžaste.

Trenutni satelitski snimci za Wilmington Manor, Сједињене Државе

Marker lokacije postavljen je na Wilmington Manor. [Više]

Satelitski snimci u realnom vremenu kombinuju vidljivu svetlost tokom dana sa infracrvenim zračenjem tokom noći. Noću slika nije tamna jer infracrveno zračenje može otkriti temperaturne razlike. Nažalost, niski oblaci i magla teško se mogu razlikovati od temperature zemlje tako da mogu biti skoro nevidljivi tokom noći. Meteosat satelitski snimci za Evropu se ažuriraju u realnom vremenu na svakih 5 minuta. Slnimci GOES-16/GOES-17 (Severna i Južna Amerika) and Himawari (Azia) ažuriraju se na svakih 10 minuta.

Nazad na vrh